Time;durP1;ratioP1;P1;durP2;ratioP2;P2;SDS_P1;SDS_P2;PMS_P1;PMS_P2;Temp;Humidity;BMP_temperature;BMP_pressure;BME280_temperature;BME280_humidity;BME280_pressure;Samples;Min_cycle;Max_cycle;Signal;HPM_P1;HPM_P2
2022/07/30 00:00:45;;;;;;;;;3.00;3.00;;;;;24.49;34.83;101596.19;5076025;28;57308;-86
2022/07/30 00:03:10;;;;;;;;;4.00;2.00;;;;;24.51;34.79;101602.25;5110477;27;57217;-86
2022/07/30 00:05:36;;;;;;;;;4.50;2.25;;;;;24.53;35.29;101604.84;5077420;28;52565;-86
2022/07/30 00:08:01;;;;;;;;;4.00;3.00;;;;;24.43;35.08;101599.34;5110498;27;48950;-86
2022/07/30 00:10:26;;;;;;;;;4.75;3.75;;;;;24.41;35.25;101590.63;5110851;27;45478;-86
2022/07/30 00:12:52;;;;;;;;;3.00;3.00;;;;;24.36;36.13;101592.75;5076955;27;63300;-86
2022/07/30 00:15:18;;;;;;;;;3.00;3.00;;;;;24.26;35.79;101591.75;5075524;28;67382;-85
2022/07/30 00:17:46;;;;;;;;;2.75;2.75;;;;;24.22;35.98;101585.81;5076461;28;45513;-96
2022/07/30 00:20:11;;;;;;;;;4.00;3.00;;;;;24.22;35.97;101592.91;5076563;28;45341;-85
2022/07/30 00:22:37;;;;;;;;;2.50;2.50;;;;;24.22;36.19;101590.25;5077638;27;45324;-87
2022/07/30 00:25:02;;;;;;;;;3.00;3.00;;;;;24.20;35.80;101592.19;5076975;28;56175;-86
2022/07/30 00:27:30;;;;;;;;;4.00;4.00;;;;;24.19;35.77;101591.34;5059584;28;45513;-86
2022/07/30 00:29:55;;;;;;;;;3.00;3.00;;;;;24.25;35.71;101606.84;5076346;28;46523;-86
2022/07/30 00:32:20;;;;;;;;;3.75;3.75;;;;;24.26;36.75;101608.56;5059112;28;65099;-86
2022/07/30 00:34:46;;;;;;;;;4.25;3.25;;;;;24.25;36.85;101598.88;5057174;28;45385;-86
2022/07/30 00:37:11;;;;;;;;;5.00;4.00;;;;;24.17;36.11;101587.09;5038406;28;65212;-86
2022/07/30 00:39:37;;;;;;;;;3.75;3.00;;;;;24.21;36.04;101608.03;5038928;28;46489;-86
2022/07/30 00:42:03;;;;;;;;;3.25;3.25;;;;;24.20;36.01;101593.06;5039113;28;45293;-85
2022/07/30 00:44:29;;;;;;;;;4.00;3.50;;;;;24.23;35.95;101599.94;5056612;28;45306;-86
2022/07/30 00:46:55;;;;;;;;;3.00;2.50;;;;;24.23;36.24;101595.47;5039046;28;45665;-86
2022/07/30 00:49:21;;;;;;;;;3.25;3.00;;;;;24.20;37.03;101592.19;5038717;28;46525;-85
2022/07/30 00:51:46;;;;;;;;;4.25;4.00;;;;;24.21;36.17;101591.22;5056844;28;45447;-85
2022/07/30 00:54:12;;;;;;;;;3.75;3.75;;;;;24.19;37.07;101598.47;5038998;28;45352;-85
2022/07/30 00:56:38;;;;;;;;;3.25;3.25;;;;;24.12;36.42;101579.44;5038964;28;45362;-86
2022/07/30 00:59:04;;;;;;;;;4.00;3.00;;;;;24.17;36.31;101590.59;5021691;28;46272;-86
2022/07/30 01:01:31;;;;;;;;;4.00;3.00;;;;;24.13;37.32;101584.66;5038680;28;45345;-86
2022/07/30 01:03:57;;;;;;;;;4.50;4.50;;;;;24.11;36.62;101586.59;5038760;28;45395;-86
2022/07/30 01:06:22;;;;;;;;;3.00;3.00;;;;;24.04;36.57;101584.50;5022123;28;45369;-86
2022/07/30 01:08:47;;;;;;;;;3.00;3.00;;;;;23.93;37.37;101570.16;5021770;28;47083;-86
2022/07/30 01:11:13;;;;;;;;;4.00;3.75;;;;;23.95;37.38;101578.84;5055519;28;70369;-86
2022/07/30 01:13:38;;;;;;;;;4.75;3.75;;;;;23.93;37.41;101587.91;5037423;28;67638;-86
2022/07/30 01:16:04;;;;;;;;;5.00;4.00;;;;;23.95;37.67;101588.66;5058163;28;63943;-86
2022/07/30 01:19:47;;;;;;;;;4.25;4.00;;;;;23.93;38.58;101587.91;5076662;28;45324;-86
2022/07/30 01:21:17;;;;;;;;;2.00;2.00;;;;;23.86;38.15;101576.88;5076472;27;45327;-86
2022/07/30 01:23:44;;;;;;;;;4.00;4.00;;;;;23.90;38.33;101582.81;5063906;28;45453;-87
2022/07/30 01:26:11;;;;;;;;;5.25;4.00;;;;;23.92;39.03;101587.06;5058256;28;45283;-86
2022/07/30 01:28:40;;;;;;;;;6.25;4.00;;;;;23.86;38.39;101573.38;5075379;28;45597;-87
2022/07/30 01:31:06;;;;;;;;;3.75;3.25;;;;;23.91;38.15;101576.53;5075230;28;45580;-86
2022/07/30 01:33:34;;;;;;;;;4.00;3.75;;;;;23.94;37.91;101586.94;5109813;27;45452;-86
2022/07/30 01:36:00;;;;;;;;;5.00;5.00;;;;;23.87;38.57;101572.41;5075529;28;45393;-86
2022/07/30 01:38:27;;;;;;;;;4.00;4.00;;;;;23.91;37.79;101581.88;5108389;27;71477;-87
2022/07/30 01:40:54;;;;;;;;;4.00;4.00;;;;;23.89;38.48;101583.78;5107237;27;65349;-86
2022/07/30 01:43:21;;;;;;;;;5.00;5.00;;;;;23.88;39.00;101588.22;5109155;27;45386;-86
2022/07/30 01:45:48;;;;;;;;;4.50;4.50;;;;;23.74;38.63;101583.88;5075262;28;45412;-86
2022/07/30 01:48:16;;;;;;;;;3.50;3.50;;;;;23.74;39.23;101578.56;5075977;28;46613;-86
2022/07/30 01:50:43;;;;;;;;;5.00;3.00;;;;;23.72;39.66;101584.97;5109254;27;45668;-85
2022/07/30 01:53:13;;;;;;;;;6.00;5.00;;;;;23.68;38.98;101581.69;5109383;27;45421;-85
2022/07/30 01:55:40;;;;;;;;;7.00;4.00;;;;;23.63;39.87;101581.16;5108708;27;45333;-86
2022/07/30 01:58:06;;;;;;;;;4.00;3.25;;;;;23.61;39.83;101577.75;5091808;27;48423;-86
2022/07/30 02:00:33;;;;;;;;;6.25;6.00;;;;;23.57;39.68;101579.78;5075025;28;45385;-86
2022/07/30 02:02:59;;;;;;;;;6.00;5.00;;;;;23.57;39.29;101576.28;5109242;27;45344;-86
2022/07/30 02:05:27;;;;;;;;;6.00;4.00;;;;;23.51;40.19;101574.03;5109235;27;45342;-86
2022/07/30 02:08:01;;;;;;;;;4.75;4.50;;;;;23.39;40.03;101568.63;5108860;27;46196;-86
2022/07/30 02:10:36;;;;;;;;;4.25;3.25;;;;;23.38;40.12;101585.53;5108616;27;45456;-86
2022/07/30 02:13:04;;;;;;;;;5.50;4.50;;;;;23.36;40.31;101583.91;5074594;27;45344;-87
2022/07/30 02:15:51;;;;;;;;;3.00;3.00;;;;;23.30;40.44;101576.38;5074871;27;45308;-86
2022/07/30 02:18:49;;;;;;;;;2.75;2.75;;;;;23.30;40.13;101579.88;5074703;28;45286;-86
2022/07/30 02:21:17;;;;;;;;;4.75;4.75;;;;;23.25;40.70;101581.16;5071571;28;45459;-86
2022/07/30 02:23:44;;;;;;;;;4.00;4.00;;;;;23.11;40.91;101572.34;5074664;28;45363;-86
2022/07/30 02:26:17;;;;;;;;;4.00;4.00;;;;;23.12;41.39;101578.50;5074457;28;45451;-86
2022/07/30 02:28:44;;;;;;;;;4.00;4.00;;;;;23.02;41.48;101575.59;5074787;28;46363;-87
2022/07/30 02:31:10;;;;;;;;;3.75;3.75;;;;;22.94;41.53;101564.66;5057545;28;46127;-86
2022/07/30 02:33:38;;;;;;;;;5.00;3.75;;;;;22.98;42.25;101574.97;5108763;27;45472;-86
2022/07/30 02:36:05;;;;;;;;;4.00;4.00;;;;;22.89;41.84;101567.63;5108898;27;45560;-86
2022/07/30 02:38:31;;;;;;;;;3.75;3.75;;;;;22.83;42.04;101561.91;5090985;27;48238;-86
2022/07/30 02:40:58;;;;;;;;;5.00;3.00;;;;;22.79;41.79;101563.91;5107839;27;66601;-86
2022/07/30 02:43:25;;;;;;;;;4.75;4.00;;;;;22.77;41.60;101563.13;5074503;28;45350;-86
2022/07/30 02:45:50;;;;;;;;;4.25;3.00;;;;;22.80;41.52;101562.94;5091532;27;45737;-86
2022/07/30 02:48:17;;;;;;;;;4.75;4.75;;;;;22.74;41.27;101560.69;5075367;28;46098;-86
2022/07/30 02:50:44;;;;;;;;;4.25;4.00;;;;;22.74;41.23;101563.34;5108556;27;45651;-85
2022/07/30 02:53:11;;;;;;;;;2.75;2.75;;;;;22.68;40.76;101561.09;5076593;28;63769;-86
2022/07/30 02:55:39;;;;;;;;;3.75;3.75;;;;;22.61;41.30;101547.41;5112181;27;45426;-86
2022/07/30 02:58:06;;;;;;;;;3.75;3.75;;;;;22.61;41.30;101564.16;5111785;27;46439;-86
2022/07/30 03:00:32;;;;;;;;;4.50;4.50;;;;;22.63;40.97;101572.03;5111972;27;45784;-86
2022/07/30 03:02:58;;;;;;;;;4.25;4.25;;;;;22.59;41.31;101565.22;5077729;28;45311;-86
2022/07/30 03:05:25;;;;;;;;;3.75;3.75;;;;;22.59;41.52;101575.84;5077772;28;45376;-86
2022/07/30 03:07:50;;;;;;;;;4.50;4.25;;;;;22.50;41.70;101576.47;5077040;28;48303;-86
2022/07/30 03:10:16;;;;;;;;;5.25;4.00;;;;;22.45;41.14;101573.25;5111737;27;45602;-86
2022/07/30 03:12:44;;;;;;;;;4.25;3.50;;;;;22.46;41.12;101581.13;5111713;27;45367;-85
2022/07/30 03:15:10;;;;;;;;;4.75;3.00;;;;;22.46;41.52;101580.28;5078706;28;45499;-85
2022/07/30 03:17:42;;;;;;;;;5.00;4.00;;;;;22.41;41.41;101568.13;5077324;28;46599;-86
2022/07/30 03:20:10;;;;;;;;;3.75;3.25;;;;;22.35;41.07;101562.41;5077387;28;45507;-86
2022/07/30 03:22:40;;;;;;;;;5.00;4.50;;;;;22.41;40.69;101569.94;5060127;28;45474;-86
2022/07/30 03:25:07;;;;;;;;;4.50;4.50;;;;;22.38;41.18;101578.97;5094175;27;45367;-86
2022/07/30 03:27:35;;;;;;;;;4.00;4.00;;;;;22.37;41.42;101573.75;5060181;28;46992;-86
2022/07/30 03:30:01;;;;;;;;;4.75;3.75;;;;;22.27;41.67;101562.91;5078455;28;45653;-86
2022/07/30 03:32:27;;;;;;;;;5.50;4.50;;;;;22.27;41.25;101572.66;5060132;28;45299;-86
2022/07/30 03:34:53;;;;;;;;;5.00;5.00;;;;;22.20;41.92;101564.22;5060489;28;45378;-85
2022/07/30 03:37:19;;;;;;;;;4.75;3.25;;;;;22.16;42.02;101566.22;5076759;28;47821;-86
2022/07/30 03:39:44;;;;;;;;;4.00;4.00;;;;;22.10;41.92;101552.50;5093385;27;64793;-86
2022/07/30 03:42:09;;;;;;;;;7.00;4.00;;;;;22.11;42.12;101563.00;5110795;27;58470;-86
2022/07/30 03:44:35;;;;;;;;;3.25;2.50;;;;;22.11;42.36;101573.63;5110624;27;63301;-87
2022/07/30 03:47:01;;;;;;;;;4.75;3.50;;;;;22.10;42.57;101568.41;5076871;28;45410;-86
2022/07/30 03:49:28;;;;;;;;;4.00;4.00;;;;;22.09;42.85;101574.69;5076897;28;45404;-85
2022/07/30 03:51:53;;;;;;;;;6.00;5.00;;;;;22.04;43.21;101570.50;5076735;28;45434;-86
2022/07/30 03:54:19;;;;;;;;;5.50;5.00;;;;;22.04;42.82;101577.59;5093916;27;45307;-85
2022/07/30 03:56:45;;;;;;;;;7.00;4.00;;;;;21.94;42.61;101573.84;5111174;27;45367;-86
2022/07/30 03:59:12;;;;;;;;;4.00;3.25;;;;;21.93;42.49;101572.97;5092683;27;72417;-85
2022/07/30 04:01:38;;;;;;;;;4.00;3.00;;;;;21.91;42.76;101568.75;5111111;27;45425;-85
2022/07/30 04:04:07;;;;;;;;;5.75;5.00;;;;;21.95;42.47;101581.72;5092020;27;65742;-86
2022/07/30 04:06:38;;;;;;;;;4.00;4.00;;;;;21.90;42.64;101582.94;5076529;28;46685;-86
2022/07/30 04:09:04;;;;;;;;;4.50;4.00;;;;;21.89;42.11;101579.44;5109685;27;45685;-86
2022/07/30 04:11:29;;;;;;;;;3.00;3.00;;;;;21.85;42.74;101578.78;5111144;27;45421;-86
2022/07/30 04:13:54;;;;;;;;;3.00;3.00;;;;;21.82;42.60;101576.34;5110656;27;45377;-86
2022/07/30 04:16:28;;;;;;;;;5.75;4.50;;;;;21.79;42.46;101580.97;5075926;28;62429;-86
2022/07/30 04:18:55;;;;;;;;;6.50;3.00;;;;;21.83;42.76;101588.63;5093481;27;45897;-85
2022/07/30 04:21:22;;;;;;;;;6.50;3.50;;;;;21.83;42.45;101591.28;5076310;28;45293;-86
2022/07/30 04:23:48;;;;;;;;;4.25;4.00;;;;;21.76;42.96;101576.69;5076144;28;45354;-86
2022/07/30 04:26:15;;;;;;;;;5.50;4.00;;;;;21.76;43.01;101586.47;5076511;28;46590;-87
2022/07/30 04:28:41;;;;;;;;;5.00;3.75;;;;;21.66;42.70;101580.91;5093409;27;45383;-86
2022/07/30 04:31:07;;;;;;;;;5.00;3.75;;;;;21.72;42.69;101595.56;5075767;28;60778;-86
2022/07/30 04:33:32;;;;;;;;;6.00;3.50;;;;;21.74;42.59;101601.59;5075614;28;60009;-85
2022/07/30 04:35:57;;;;;;;;;3.50;3.50;;;;;21.71;42.76;101594.72;5109810;27;46536;-85
2022/07/30 04:38:23;;;;;;;;;3.00;3.00;;;;;21.69;43.19;101591.28;5092514;27;64612;-86
2022/07/30 04:40:48;;;;;;;;;6.00;4.00;;;;;21.72;43.68;101595.56;5109762;27;64081;-85
2022/07/30 04:43:14;;;;;;;;;3.00;3.00;;;;;21.73;43.66;101600.75;5077261;28;45503;-85
2022/07/30 04:45:40;;;;;;;;;3.00;3.00;;;;;21.65;43.57;101579.19;5075924;28;46826;-86
2022/07/30 04:48:06;;;;;;;;;4.00;4.00;;;;;21.71;43.15;101597.38;5075859;28;45446;-86
2022/07/30 04:50:32;;;;;;;;;5.25;4.00;;;;;21.68;42.90;101594.88;5076704;28;53321;-86
2022/07/30 04:52:59;;;;;;;;;5.00;3.75;;;;;21.65;43.20;101597.72;5110294;27;45400;-86
2022/07/30 04:55:25;;;;;;;;;6.75;4.50;;;;;21.64;43.66;101591.59;5109369;27;65081;-85
2022/07/30 04:57:51;;;;;;;;;5.25;4.00;;;;;21.65;44.06;101592.44;5075943;28;45496;-86
2022/07/30 05:00:17;;;;;;;;;3.00;3.00;;;;;21.68;43.98;101596.69;5093411;27;45341;-86
2022/07/30 05:02:43;;;;;;;;;4.00;4.00;;;;;21.63;43.99;101583.72;5076107;28;45462;-86
2022/07/30 05:05:11;;;;;;;;;4.25;3.00;;;;;21.65;43.71;101589.78;5109681;27;46809;-86
2022/07/30 05:07:37;;;;;;;;;7.00;4.00;;;;;21.62;44.03;101582.88;5109973;27;45815;-86
2022/07/30 05:10:03;;;;;;;;;3.50;3.50;;;;;21.70;43.69;101600.94;5109933;27;61070;-86
2022/07/30 05:12:37;;;;;;;;;4.00;4.00;;;;;21.73;43.31;101599.88;5093091;27;45425;-86
2022/07/30 05:15:05;;;;;;;;;4.50;4.00;;;;;21.79;43.83;101615.44;5076278;28;46533;-86
2022/07/30 05:17:30;;;;;;;;;3.50;3.50;;;;;21.73;43.77;101600.75;5059413;28;46115;-85
2022/07/30 05:19:55;;;;;;;;;5.00;4.00;;;;;21.78;43.70;101609.25;5077441;28;51132;-86
2022/07/30 05:22:21;;;;;;;;;5.00;5.00;;;;;21.74;43.40;101599.78;5111535;27;65081;-87
2022/07/30 05:24:46;;;;;;;;;4.00;4.00;;;;;21.79;43.61;101613.63;5110513;27;67156;-86
2022/07/30 05:27:11;;;;;;;;;7.25;5.00;;;;;21.78;43.76;101608.41;5111261;27;64629;-86
2022/07/30 05:29:37;;;;;;;;;7.00;5.75;;;;;21.78;43.36;101619.00;5078336;28;45288;-86
2022/07/30 05:32:02;;;;;;;;;4.00;4.00;;;;;21.76;44.18;101613.81;5093457;27;57673;-85
2022/07/30 05:34:27;;;;;;;;;6.00;5.00;;;;;21.76;44.42;101597.91;5077097;28;47373;-86
2022/07/30 05:36:53;;;;;;;;;5.25;4.00;;;;;21.88;44.40;101612.19;5092837;27;69411;-85
2022/07/30 05:39:18;;;;;;;;;4.00;4.00;;;;;21.87;43.64;101610.47;5077796;28;45295;-86
2022/07/30 05:41:43;;;;;;;;;4.25;4.25;;;;;21.94;44.61;101618.91;5079185;28;45469;-86
2022/07/30 05:44:09;;;;;;;;;6.25;4.75;;;;;21.90;44.33;101620.91;5081340;28;49387;-88
2022/07/30 05:46:34;;;;;;;;;6.25;5.50;;;;;21.83;44.14;101607.19;5098350;27;45583;-87
2022/07/30 05:48:59;;;;;;;;;5.50;3.25;;;;;21.90;43.93;101620.03;5093460;27;50685;-86
2022/07/30 05:51:25;;;;;;;;;6.00;6.00;;;;;21.95;44.96;101621.47;5074643;28;52559;-85
2022/07/30 05:53:50;;;;;;;;;9.00;6.00;;;;;21.97;44.56;101618.69;5076111;28;46845;-84
2022/07/30 05:56:16;;;;;;;;;10.25;8.00;;;;;21.94;44.42;101627.72;5075078;28;45315;-84
2022/07/30 05:58:41;;;;;;;;;7.50;7.50;;;;;21.85;44.37;101609.72;5075646;28;52721;-84
2022/07/30 06:01:06;;;;;;;;;8.75;8.00;;;;;21.94;44.64;101624.22;5076182;28;45350;-84
2022/07/30 06:03:33;;;;;;;;;9.00;7.50;;;;;21.92;44.64;101621.66;5075508;28;49582;-84
2022/07/30 06:05:58;;;;;;;;;8.75;7.75;;;;;21.93;44.56;101626.00;5108783;27;45407;-84
2022/07/30 06:08:23;;;;;;;;;8.25;8.00;;;;;21.94;45.00;101632.16;5108265;27;66541;-85
2022/07/30 06:10:49;;;;;;;;;7.25;7.25;;;;;21.97;44.76;101634.59;5074056;28;58348;-81
2022/07/30 06:13:14;;;;;;;;;7.00;7.00;;;;;21.95;44.67;101637.38;5074762;27;69932;-83
2022/07/30 06:15:39;;;;;;;;;9.00;8.00;;;;;21.93;45.08;101641.06;5073847;28;68658;-81
2022/07/30 06:18:05;;;;;;;;;10.00;8.75;;;;;21.91;44.75;101629.69;5074394;28;45459;-80
2022/07/30 06:20:30;;;;;;;;;11.00;10.00;;;;;21.85;44.83;101625.63;5075030;27;67832;-82
2022/07/30 06:22:55;;;;;;;;;9.75;7.00;;;;;21.91;45.31;101633.19;5074275;28;47393;-82
2022/07/30 06:25:21;;;;;;;;;8.25;7.00;;;;;21.92;44.74;101640.22;5073292;28;71868;-81
2022/07/30 06:27:46;;;;;;;;;8.50;8.25;;;;;21.96;45.56;101640.88;5078563;28;45273;-82
2022/07/30 06:30:12;;;;;;;;;9.75;8.00;;;;;21.93;44.47;101633.09;5077956;28;45187;-82
2022/07/30 06:32:37;;;;;;;;;8.00;8.00;;;;;22.01;44.12;101644.94;5078760;27;45547;-82
2022/07/30 06:35:02;;;;;;;;;7.50;7.25;;;;;22.08;44.01;101649.84;5079155;28;45325;-82
2022/07/30 06:37:28;;;;;;;;;8.25;7.00;;;;;22.13;44.05;101653.06;5112482;27;45454;-82
2022/07/30 06:39:53;;;;;;;;;6.00;6.00;;;;;22.20;43.58;101660.53;5079863;28;45740;-81
2022/07/30 06:42:19;;;;;;;;;10.00;7.50;;;;;22.24;43.23;101662.03;5079085;28;46172;-81
2022/07/30 06:44:44;;;;;;;;;6.25;5.00;;;;;22.32;43.46;101668.69;5111995;27;45394;-82
2022/07/30 06:47:10;;;;;;;;;8.75;6.25;;;;;22.36;43.15;101665.75;5077819;28;67801;-82
2022/07/30 06:49:36;;;;;;;;;6.00;5.50;;;;;22.35;42.96;101665.84;5078203;28;65178;-81
2022/07/30 06:52:02;;;;;;;;;6.00;6.00;;;;;22.44;42.51;101673.22;5111971;27;46157;-82
2022/07/30 06:54:27;;;;;;;;;6.00;5.00;;;;;22.49;43.08;101664.94;5078920;28;45417;-82
2022/07/30 06:56:53;;;;;;;;;7.25;6.00;;;;;22.56;42.81;101663.59;5078069;28;66143;-82
2022/07/30 06:59:18;;;;;;;;;5.00;5.00;;;;;22.64;42.76;101656.00;5111178;27;63112;-82
2022/07/30 07:01:43;;;;;;;;;9.25;7.00;;;;;22.69;41.95;101663.66;5078479;28;46121;-84
2022/07/30 07:04:09;;;;;;;;;6.50;6.50;;;;;22.73;41.93;101662.50;5111274;27;70219;-83
2022/07/30 07:06:34;;;;;;;;;5.00;5.00;;;;;22.83;41.81;101678.69;5078899;28;45456;-81
2022/07/30 07:09:00;;;;;;;;;8.00;5.50;;;;;22.87;41.90;101669.56;5078684;28;45351;-84
2022/07/30 07:11:25;;;;;;;;;7.00;6.00;;;;;22.90;41.55;101675.53;5088561;27;45488;-80
2022/07/30 07:13:51;;;;;;;;;6.00;6.00;;;;;22.95;42.01;101680.50;5093003;27;66835;-80
2022/07/30 07:16:20;;;;;;;;;6.25;5.25;;;;;23.06;41.75;101691.28;5094978;27;69248;-84
2022/07/30 07:18:46;;;;;;;;;7.75;5.25;;;;;23.12;43.04;101684.72;5094633;27;45565;-81
2022/07/30 07:21:11;;;;;;;;;8.00;4.75;;;;;23.19;41.72;101680.72;5098953;27;46548;-81
2022/07/30 07:23:36;;;;;;;;;6.75;6.50;;;;;23.27;41.40;101680.19;5097724;27;71088;-81
2022/07/30 07:26:02;;;;;;;;;5.75;4.75;;;;;23.41;42.33;101688.06;5098010;27;69546;-81
2022/07/30 07:28:27;;;;;;;;;6.25;4.50;;;;;23.42;41.36;101673.84;5098565;27;45320;-81
2022/07/30 07:30:53;;;;;;;;;5.25;4.50;;;;;23.43;41.54;101675.53;5093058;27;47115;-79
2022/07/30 07:33:18;;;;;;;;;6.50;6.00;;;;;23.49;41.27;101680.41;5078212;28;45485;-80
2022/07/30 07:35:43;;;;;;;;;9.00;6.00;;;;;23.54;41.95;101675.63;5077286;28;69134;-80
2022/07/30 07:38:09;;;;;;;;;8.00;6.25;;;;;23.56;41.64;101671.06;5076625;28;54921;-80
2022/07/30 07:40:34;;;;;;;;;7.50;6.00;;;;;23.54;41.03;101677.47;5077485;28;72624;-80
2022/07/30 07:42:59;;;;;;;;;6.25;6.25;;;;;23.54;41.60;101667.66;5078386;28;45345;-80
2022/07/30 07:45:25;;;;;;;;;5.75;5.75;;;;;23.59;41.44;101667.38;5110442;27;67436;-80
2022/07/30 07:47:50;;;;;;;;;6.25;6.00;;;;;23.65;40.82;101671.41;5077781;28;68619;-80
2022/07/30 07:50:17;;;;;;;;;6.75;6.75;;;;;23.66;40.82;101681.06;5110175;27;69640;-80
2022/07/30 07:52:42;;;;;;;;;7.00;5.50;;;;;23.66;40.85;101668.66;5078824;28;45425;-80
2022/07/30 07:55:08;;;;;;;;;6.50;6.50;;;;;23.68;40.17;101676.47;5077236;28;62850;-80
2022/07/30 07:57:44;;;;;;;;;7.75;5.75;;;;;23.73;40.58;101672.53;5077985;28;45270;-80
2022/07/30 08:00:11;;;;;;;;;8.25;6.50;;;;;23.80;40.22;101667.69;5076962;28;46402;-80
2022/07/30 08:02:37;;;;;;;;;5.75;5.50;;;;;23.94;40.18;101664.03;5093529;27;45411;-80
2022/07/30 08:05:06;;;;;;;;;6.00;6.00;;;;;24.10;39.85;101669.97;5078433;28;45517;-80
2022/07/30 08:07:31;;;;;;;;;8.75;5.50;;;;;24.16;39.67;101679.34;5077979;27;45411;-81
2022/07/30 08:09:56;;;;;;;;;3.00;3.00;;;;;24.27;39.72;101675.91;5077721;28;47104;-80
2022/07/30 08:12:22;;;;;;;;;5.00;4.75;;;;;24.45;39.17;101679.06;5076169;27;71239;-80
2022/07/30 08:14:48;;;;;;;;;6.00;6.00;;;;;24.59;39.09;101670.06;5095233;27;45881;-80
2022/07/30 08:17:13;;;;;;;;;7.00;5.25;;;;;24.76;38.87;101672.34;5078990;27;45393;-80
2022/07/30 08:19:38;;;;;;;;;6.75;4.75;;;;;24.94;38.65;101664.78;5077220;28;65860;-81
2022/07/30 08:22:04;;;;;;;;;6.50;5.00;;;;;25.10;38.34;101670.66;5077187;27;69540;-81
2022/07/30 08:24:29;;;;;;;;;8.00;5.50;;;;;25.20;37.79;101673.47;5093836;27;45478;-80
2022/07/30 08:26:54;;;;;;;;;5.00;5.00;;;;;25.30;37.98;101674.50;5095801;27;45275;-79
2022/07/30 08:29:20;;;;;;;;;5.25;5.00;;;;;25.33;37.55;101678.72;5096909;27;69200;-80
2022/07/30 08:31:45;;;;;;;;;5.00;4.25;;;;;25.33;37.08;101672.56;5094353;27;67266;-80
2022/07/30 08:34:12;;;;;;;;;6.00;4.00;;;;;25.36;37.87;101680.34;5063695;28;59353;-80
2022/07/30 08:36:37;;;;;;;;;7.25;5.00;;;;;25.47;36.70;101691.00;5077534;27;45498;-80
2022/07/30 08:39:02;;;;;;;;;4.75;4.50;;;;;25.49;36.52;101689.06;5096435;27;45602;-79
2022/07/30 08:41:28;;;;;;;;;6.00;4.75;;;;;25.56;36.33;101681.47;5088051;27;45509;-80
2022/07/30 08:43:54;;;;;;;;;6.50;4.00;;;;;25.62;35.51;101684.50;5074638;28;69190;-79
2022/07/30 08:46:23;;;;;;;;;4.00;4.00;;;;;25.67;35.59;101676.97;5085826;27;45450;-81
2022/07/30 08:48:51;;;;;;;;;4.25;4.00;;;;;25.78;35.27;101681.47;5075545;27;47497;-82
2022/07/30 08:51:18;;;;;;;;;3.50;3.25;;;;;25.84;34.91;101682.81;5087870;27;45896;-81
2022/07/30 08:53:45;;;;;;;;;4.25;4.25;;;;;25.93;34.72;101690.13;5081887;27;45417;-81
2022/07/30 08:56:10;;;;;;;;;5.25;5.00;;;;;25.90;34.42;101679.66;5095570;27;45476;-80
2022/07/30 08:58:35;;;;;;;;;4.00;2.75;;;;;25.93;35.41;101686.59;5089769;27;46286;-84
2022/07/30 09:01:02;;;;;;;;;4.50;4.00;;;;;25.96;34.72;101686.34;5058711;28;45479;-83
2022/07/30 09:03:28;;;;;;;;;5.00;3.75;;;;;26.00;34.00;101683.34;5071414;27;45524;-83
2022/07/30 09:05:53;;;;;;;;;6.00;4.00;;;;;26.00;35.06;101683.34;5062715;27;45414;-84
2022/07/30 09:08:18;;;;;;;;;3.25;3.25;;;;;26.04;34.43;101667.94;5074002;27;58652;-82
2022/07/30 09:10:46;;;;;;;;;5.00;5.00;;;;;26.15;34.08;101672.38;5088771;27;57886;-82
2022/07/30 09:13:33;;;;;;;;;3.25;3.00;;;;;26.27;34.11;101682.09;5086455;27;45607;-82
2022/07/30 09:15:59;;;;;;;;;4.00;3.75;;;;;26.32;33.97;101679.03;5082301;27;45580;-82
2022/07/30 09:18:33;;;;;;;;;4.75;4.00;;;;;26.37;33.95;101687.50;5067754;28;45551;-83
2022/07/30 09:21:00;;;;;;;;;6.50;4.75;;;;;26.41;34.34;101684.50;5071684;28;45457;-81
2022/07/30 09:23:26;;;;;;;;;4.00;4.00;;;;;26.52;34.02;101683.59;5084842;27;45321;-82
2022/07/30 09:25:51;;;;;;;;;4.25;3.00;;;;;26.63;33.68;101682.75;5078359;27;45263;-82
2022/07/30 09:28:27;;;;;;;;;5.50;4.25;;;;;26.77;33.42;101690.47;5079109;27;46550;-82
2022/07/30 09:30:54;;;;;;;;;3.25;3.25;;;;;26.85;32.85;101692.50;5089873;27;45314;-82
2022/07/30 09:33:43;;;;;;;;;4.00;4.00;;;;;26.96;32.77;101695.13;5075171;28;45495;-82
2022/07/30 09:36:10;;;;;;;;;2.25;2.25;;;;;27.03;33.15;101690.13;5069797;28;45526;-82
2022/07/30 09:38:42;;;;;;;;;2.50;2.50;;;;;27.05;32.47;101693.50;5056054;27;45444;-81
2022/07/30 09:41:07;;;;;;;;;3.25;3.25;;;;;26.97;32.10;101696.00;5084943;27;45490;-81
2022/07/30 09:43:50;;;;;;;;;4.25;4.00;;;;;26.95;32.45;101689.91;5094983;27;46925;-81
2022/07/30 09:46:17;;;;;;;;;3.25;3.25;;;;;26.97;32.91;101694.16;5095115;27;45610;-81
2022/07/30 09:48:43;;;;;;;;;4.00;4.00;;;;;27.03;33.29;101700.81;5065805;27;45519;-81
2022/07/30 09:51:09;;;;;;;;;5.25;3.00;;;;;27.07;33.18;101696.91;5057276;27;45551;-81
2022/07/30 09:53:35;;;;;;;;;5.00;4.00;;;;;27.06;32.10;101705.03;5054418;27;45420;-81
2022/07/30 09:56:03;;;;;;;;;3.25;3.25;;;;;27.04;31.79;101706.03;5099188;27;45422;-81
2022/07/30 09:58:39;;;;;;;;;3.75;3.00;;;;;27.11;32.95;101702.84;5064794;27;45498;-81
2022/07/30 10:01:05;;;;;;;;;7.00;4.00;;;;;27.17;32.29;101694.28;5073546;28;45454;-81
2022/07/30 10:03:30;;;;;;;;;4.00;2.75;;;;;27.22;32.19;101698.28;5073336;27;45498;-80
2022/07/30 10:05:57;;;;;;;;;4.50;4.00;;;;;27.27;32.15;101689.91;5059779;27;57194;-81
2022/07/30 10:08:46;;;;;;;;;4.00;4.00;;;;;27.37;32.38;101690.81;5087875;27;46390;-81
2022/07/30 10:11:23;;;;;;;;;4.50;3.50;;;;;27.43;32.44;101686.75;5069362;28;45624;-83
2022/07/30 10:13:49;;;;;;;;;4.75;4.25;;;;;27.48;31.97;101687.22;5061294;27;45439;-81
2022/07/30 10:16:15;;;;;;;;;8.75;8.00;;;;;27.57;32.12;101689.09;5063687;27;45384;-82
2022/07/30 10:18:43;;;;;;;;;4.25;4.25;;;;;27.63;31.91;101681.53;5073835;27;62355;-82
2022/07/30 10:21:09;;;;;;;;;4.50;4.50;;;;;27.67;32.21;101677.59;5074505;28;50390;-81
2022/07/30 10:23:34;;;;;;;;;3.50;3.50;;;;;27.72;31.88;101678.06;5073190;28;59703;-82
2022/07/30 10:26:00;;;;;;;;;4.50;4.50;;;;;27.78;32.35;101685.53;5108755;27;45418;-81
2022/07/30 10:28:28;;;;;;;;;4.00;4.00;;;;;27.84;31.76;101679.69;5057954;28;45485;-82
2022/07/30 10:30:55;;;;;;;;;6.25;3.00;;;;;27.92;31.72;101685.22;5060996;28;45745;-82
2022/07/30 10:33:25;;;;;;;;;6.00;4.00;;;;;27.94;31.20;101669.03;5108723;27;45472;-82
2022/07/30 10:35:51;;;;;;;;;4.00;4.00;;;;;27.99;31.42;101666.81;5093592;27;45442;-81
2022/07/30 10:38:20;;;;;;;;;7.00;6.00;;;;;27.99;31.24;101667.63;5054880;28;45949;-80
2022/07/30 10:40:57;;;;;;;;;6.00;4.25;;;;;28.06;31.39;101669.75;5053888;28;45617;-84
2022/07/30 10:43:31;;;;;;;;;6.75;5.75;;;;;28.18;32.16;101668.69;5071345;28;45467;-84
2022/07/30 10:46:33;;;;;;;;;7.25;7.00;;;;;28.23;31.86;101663.78;5055337;28;45458;-86
2022/07/30 10:49:10;;;;;;;;;5.00;4.50;;;;;28.33;31.49;101664.63;5086933;27;47135;-86
2022/07/30 10:51:42;;;;;;;;;7.25;6.50;;;;;28.46;30.70;101675.06;5066971;28;45521;-85
2022/07/30 10:54:33;;;;;;;;;3.50;3.50;;;;;28.52;30.65;101671.00;5090894;27;45687;-85
2022/07/30 10:57:09;;;;;;;;;6.50;5.00;;;;;28.50;31.34;101660.41;5075008;28;45572;-87
2022/07/30 10:59:57;;;;;;;;;3.00;3.00;;;;;28.55;30.22;101660.03;5075161;28;45660;-84
2022/07/30 11:02:24;;;;;;;;;8.50;4.75;;;;;28.60;30.38;101673.00;5060120;27;45761;-83
2022/07/30 11:04:49;;;;;;;;;4.00;3.00;;;;;28.63;30.68;101662.00;5075129;28;45434;-85
2022/07/30 11:07:21;;;;;;;;;4.25;3.00;;;;;28.65;30.22;101655.53;5073570;27;45362;-87
2022/07/30 11:09:47;;;;;;;;;7.00;4.00;;;;;28.75;30.90;101661.75;5074890;28;46350;-86
2022/07/30 11:12:13;;;;;;;;;4.00;4.00;;;;;28.80;29.95;101653.25;5073842;28;45662;-85
2022/07/30 11:14:44;;;;;;;;;2.75;2.00;;;;;28.84;29.41;101654.66;5078752;28;45357;-85
2022/07/30 11:17:10;;;;;;;;;3.50;3.25;;;;;28.83;30.05;101646.78;5078508;28;45439;-84
2022/07/30 11:20:03;;;;;;;;;2.75;2.75;;;;;28.89;30.13;101660.44;5057893;28;46053;-83
2022/07/30 11:22:43;;;;;;;;;3.00;3.00;;;;;28.93;30.08;101652.97;5057536;28;45348;-84
2022/07/30 11:25:28;;;;;;;;;6.00;4.75;;;;;28.96;30.86;101653.53;5057961;28;45405;-82